Time;durP1;ratioP1;P1;durP2;ratioP2;P2;SDS_P1;SDS_P2;PMS_P1;PMS_P2;Temp;Humidity;BMP_temperature;BMP_pressure;BME280_temperature;BME280_humidity;BME280_pressure;Samples;Min_cycle;Max_cycle;Signal;HPM_P1;HPM_P2
2023/08/15 00:00:08;;;;;;;2.45;1.00;;;;;;;29.11;39.56;101293.69;5086983;28;20042;-69
2023/08/15 00:02:35;;;;;;;7.13;1.38;;;;;;;28.95;40.55;101294.09;5089059;28;20047;-69
2023/08/15 00:05:00;;;;;;;3.72;1.00;;;;;;;28.84;40.17;101294.09;5086969;28;20052;-68
2023/08/15 00:07:26;;;;;;;3.90;1.27;;;;;;;29.20;40.11;101276.81;5083758;28;20480;-69
2023/08/15 00:09:51;;;;;;;7.18;1.40;;;;;;;29.16;40.51;101286.09;5086677;28;20020;-69
2023/08/15 00:12:17;;;;;;;7.88;1.30;;;;;;;29.30;39.94;101292.22;5089591;28;20028;-69
2023/08/15 00:14:42;;;;;;;3.92;1.50;;;;;;;29.22;40.46;101291.00;5086910;28;20343;-70
2023/08/15 00:17:07;;;;;;;6.35;1.45;;;;;;;29.20;40.04;101287.56;5086734;28;20476;-69
2023/08/15 00:19:33;;;;;;;3.17;0.98;;;;;;;29.02;40.74;101283.72;5091159;28;20048;-69
2023/08/15 00:21:58;;;;;;;5.50;1.38;;;;;;;29.23;40.69;101281.94;5090138;28;20391;-69
2023/08/15 00:24:24;;;;;;;4.28;1.48;;;;;;;28.91;41.05;101290.81;5092391;28;20028;-69
2023/08/15 00:26:49;;;;;;;4.30;1.35;;;;;;;29.08;40.51;101300.19;5091120;28;20081;-69
2023/08/15 00:29:15;;;;;;;2.67;0.98;;;;;;;29.06;40.73;101302.16;5089675;28;20036;-69
2023/08/15 00:31:40;;;;;;;5.10;1.40;;;;;;;29.13;41.14;101297.13;5090418;28;20024;-69
2023/08/15 00:34:05;;;;;;;4.38;1.10;;;;;;;29.18;41.18;101299.44;5091221;28;20028;-69
2023/08/15 00:36:31;;;;;;;3.67;1.40;;;;;;;29.16;40.63;101299.56;5091100;28;20024;-69
2023/08/15 00:39:01;;;;;;;2.50;0.95;;;;;;;29.19;40.95;101296.63;5091123;28;20036;-69
2023/08/15 00:41:26;;;;;;;5.75;0.85;;;;;;;29.23;40.39;101295.38;5090129;28;20113;-68
2023/08/15 00:43:53;;;;;;;1.83;0.90;;;;;;;29.40;41.05;101294.03;5090654;28;20020;-70
2023/08/15 00:46:18;;;;;;;4.78;1.42;;;;;;;29.47;40.99;101299.78;5090072;28;20032;-70
2023/08/15 00:48:44;;;;;;;3.58;1.17;;;;;;;29.69;40.36;101312.28;5089753;28;20039;-69
2023/08/15 00:51:09;;;;;;;8.88;1.83;;;;;;;29.64;40.79;101308.28;5080720;28;20032;-70
2023/08/15 00:53:35;;;;;;;5.32;1.00;;;;;;;29.70;40.22;101315.84;5082156;28;20024;-69
2023/08/15 00:56:02;;;;;;;3.45;1.70;;;;;;;30.01;39.61;101310.59;5090373;28;20024;-69
2023/08/15 00:58:29;;;;;;;7.43;1.00;;;;;;;29.90;39.89;101311.50;5089669;28;20139;-69
2023/08/15 01:00:55;;;;;;;2.72;1.25;;;;;;;29.79;41.12;101309.69;5081054;28;20459;-69
2023/08/15 01:03:21;;;;;;;1.67;1.13;;;;;;;29.85;40.02;101313.72;5090087;28;20032;-70
2023/08/15 01:05:49;;;;;;;2.95;1.40;;;;;;;29.39;41.19;101313.84;5087163;28;20100;-69
2023/08/15 01:08:15;;;;;;;2.50;1.23;;;;;;;29.50;41.50;101307.59;5071076;28;20479;-69
2023/08/15 01:10:43;;;;;;;7.30;1.50;;;;;;;29.56;41.06;101308.91;5087793;28;20032;-70
2023/08/15 01:13:11;;;;;;;4.03;1.02;;;;;;;29.49;41.84;101292.41;5071459;28;20037;-69
2023/08/15 01:15:41;;;;;;;3.30;1.80;;;;;;;29.52;41.15;101297.53;5081824;28;20517;-69
2023/08/15 01:18:16;;;;;;;4.13;1.58;;;;;;;29.65;40.81;101302.75;5089743;28;20480;-69
2023/08/15 01:20:42;;;;;;;3.47;1.15;;;;;;;29.59;41.29;101293.38;5088846;28;20056;-69
2023/08/15 01:23:08;;;;;;;3.10;1.35;;;;;;;29.60;41.97;101300.44;5090677;28;20119;-69
2023/08/15 01:25:42;;;;;;;5.25;1.40;;;;;;;29.43;42.19;101303.72;5088643;28;20169;-69
2023/08/15 01:28:15;;;;;;;4.05;1.33;;;;;;;29.57;41.66;101300.69;5075251;28;20021;-69
2023/08/15 01:30:46;;;;;;;2.95;1.00;;;;;;;29.56;41.39;101293.59;5083755;28;20479;-69
2023/08/15 01:33:17;;;;;;;7.22;1.67;;;;;;;29.42;42.76;101297.44;5088069;28;20032;-69
2023/08/15 01:35:47;;;;;;;1.38;1.20;;;;;;;29.38;42.45;101305.91;5089306;28;20043;-69
2023/08/15 01:38:36;;;;;;;4.30;1.50;;;;;;;29.24;42.05;101299.81;5089793;28;20031;-69
2023/08/15 01:41:05;;;;;;;3.95;1.40;;;;;;;29.30;41.93;101303.84;5083989;28;20031;-70
2023/08/15 01:43:33;;;;;;;3.08;1.05;;;;;;;29.28;42.25;101306.66;5090840;28;20079;-69
2023/08/15 01:45:59;;;;;;;4.50;1.48;;;;;;;29.12;42.42;101295.41;5090919;28;20024;-70
2023/08/15 01:48:24;;;;;;;3.40;1.48;;;;;;;28.80;42.99;101285.44;5089824;28;20047;-70
2023/08/15 01:50:49;;;;;;;3.15;1.23;;;;;;;29.11;42.58;101293.69;5090065;28;20123;-69
2023/08/15 01:53:15;;;;;;;3.50;1.38;;;;;;;28.90;43.55;101296.31;5088289;28;20483;-69
2023/08/15 01:55:40;;;;;;;4.43;1.73;;;;;;;28.92;43.30;101294.34;5089146;28;20035;-69
2023/08/15 01:58:06;;;;;;;3.45;1.70;;;;;;;28.73;44.09;101300.38;5089672;28;20055;-69
2023/08/15 02:00:31;;;;;;;3.90;1.58;;;;;;;28.90;44.07;101302.53;5088899;28;20035;-69
2023/08/15 02:02:56;;;;;;;3.15;1.02;;;;;;;28.46;44.29;101298.84;5089748;28;20472;-69
2023/08/15 02:05:22;;;;;;;4.40;1.88;;;;;;;28.57;44.10;101304.22;5088639;28;20024;-69
2023/08/15 02:07:47;;;;;;;3.50;1.52;;;;;;;28.55;44.51;101303.50;5087210;28;20495;-70
2023/08/15 02:10:13;;;;;;;2.72;1.08;;;;;;;28.70;44.54;101300.59;5090108;28;20051;-70
2023/08/15 02:12:38;;;;;;;5.70;1.60;;;;;;;28.69;44.17;101309.66;5087373;28;20031;-70
2023/08/15 02:15:04;;;;;;;2.42;1.20;;;;;;;28.68;44.25;101310.63;5090102;28;20472;-70
2023/08/15 02:17:30;;;;;;;4.60;1.40;;;;;;;29.02;44.05;101299.84;5088897;28;20057;-70
2023/08/15 02:19:56;;;;;;;4.32;1.35;;;;;;;29.05;43.72;101304.97;5089455;28;20373;-70
2023/08/15 02:22:21;;;;;;;5.18;1.77;;;;;;;28.77;44.48;101312.59;5088593;28;20428;-69
2023/08/15 02:24:47;;;;;;;5.72;1.30;;;;;;;28.58;45.08;101303.25;5087448;28;20020;-70
2023/08/15 02:27:12;;;;;;;6.00;1.40;;;;;;;28.70;44.79;101300.59;5090529;28;20032;-70
2023/08/15 02:29:37;;;;;;;2.47;1.27;;;;;;;28.83;44.21;101309.41;5088659;28;20020;-70
2023/08/15 02:32:03;;;;;;;1.27;1.00;;;;;;;28.72;45.07;101314.78;5090418;28;20023;-69
2023/08/15 02:34:29;;;;;;;5.03;1.92;;;;;;;28.59;45.08;101321.09;5089853;28;20408;-70
2023/08/15 02:36:54;;;;;;;7.28;1.38;;;;;;;28.87;44.64;101329.69;5085985;28;20444;-69
2023/08/15 02:39:19;;;;;;;6.70;1.92;;;;;;;29.05;44.09;101331.88;5072813;28;20034;-69
2023/08/15 02:41:45;;;;;;;4.05;1.02;;;;;;;28.73;45.44;101340.72;5088231;28;20039;-70
2023/08/15 02:44:11;;;;;;;3.33;1.00;;;;;;;28.37;46.09;101342.56;5088612;28;20039;-70
2023/08/15 02:46:36;;;;;;;2.58;1.20;;;;;;;28.17;46.90;101352.19;5088554;28;20058;-70
2023/08/15 02:49:02;;;;;;;4.47;1.13;;;;;;;28.65;46.39;101348.53;5089224;28;20158;-70
2023/08/15 02:51:27;;;;;;;5.03;1.38;;;;;;;28.54;46.27;101355.56;5087855;28;20665;-70
2023/08/15 02:53:53;;;;;;;4.55;2.13;;;;;;;28.10;47.44;101370.59;5076837;28;20152;-70
2023/08/15 02:56:18;;;;;;;4.72;1.60;;;;;;;27.44;50.38;101370.97;5088364;28;20020;-70
2023/08/15 02:58:44;;;;;;;3.83;1.30;;;;;;;28.45;47.38;101375.06;5087698;28;20047;-70
2023/08/15 03:01:10;;;;;;;6.55;1.30;;;;;;;28.03;48.00;101366.66;5088206;28;20035;-70
2023/08/15 03:03:35;;;;;;;5.93;1.33;;;;;;;28.46;47.36;101347.22;5084106;28;20446;-69
2023/08/15 03:06:02;;;;;;;5.45;1.58;;;;;;;28.31;47.80;101343.91;5089104;28;20035;-70
2023/08/15 03:08:27;;;;;;;3.22;1.40;;;;;;;28.57;47.25;101349.09;5069151;28;20025;-70
2023/08/15 03:10:53;;;;;;;5.93;1.40;;;;;;;28.44;47.35;101349.19;5068311;28;20522;-70
2023/08/15 03:13:19;;;;;;;5.70;1.58;;;;;;;28.51;47.15;101350.41;5088334;28;20032;-69
2023/08/15 03:16:05;;;;;;;7.13;1.58;;;;;;;28.24;48.11;101359.63;5088631;28;20057;-70
2023/08/15 03:18:30;;;;;;;7.80;2.38;;;;;;;28.49;47.64;101351.50;5089171;28;20123;-69
2023/08/15 03:20:55;;;;;;;6.22;1.55;;;;;;;28.58;46.95;101356.19;5088555;28;20092;-70
2023/08/15 03:23:21;;;;;;;5.47;1.70;;;;;;;28.23;47.99;101357.06;5070846;28;20028;-70
2023/08/15 03:26:02;;;;;;;5.63;1.45;;;;;;;28.36;47.96;101349.78;5086619;28;20031;-70
2023/08/15 03:28:27;;;;;;;8.20;1.65;;;;;;;28.16;48.49;101356.69;5088220;28;20035;-69
2023/08/15 03:30:53;;;;;;;6.00;1.75;;;;;;;28.13;48.49;101356.91;5089698;28;20035;-69
2023/08/15 03:33:19;;;;;;;4.88;1.52;;;;;;;27.97;48.86;101367.09;5087305;28;20459;-70
2023/08/15 03:35:48;;;;;;;4.00;1.50;;;;;;;27.98;49.65;101368.81;5089757;28;20073;-69
2023/08/15 03:38:16;;;;;;;5.43;1.23;;;;;;;27.88;49.64;101369.50;5088860;28;20594;-70
2023/08/15 03:40:45;;;;;;;7.63;1.80;;;;;;;27.97;49.06;101373.31;5087666;28;20476;-70
2023/08/15 03:43:11;;;;;;;6.40;2.38;;;;;;;27.78;49.51;101368.50;5086794;28;20039;-70
2023/08/15 03:45:38;;;;;;;2.90;1.70;;;;;;;27.91;49.35;101369.25;5087974;28;20392;-70
2023/08/15 03:48:08;;;;;;;3.45;2.05;;;;;;;27.85;49.33;101361.69;5087246;28;20395;-69
2023/08/15 03:50:35;;;;;;;3.10;1.52;;;;;;;26.84;52.41;101362.66;5088641;28;20020;-70
2023/08/15 03:53:01;;;;;;;6.22;1.20;;;;;;;27.63;50.47;101364.22;5089412;28;20027;-70
2023/08/15 03:55:30;;;;;;;3.15;1.13;;;;;;;27.10;52.63;101368.00;5088790;28;20020;-70
2023/08/15 03:57:56;;;;;;;5.63;1.67;;;;;;;26.94;53.43;101378.13;5091100;28;20052;-70
2023/08/15 04:00:22;;;;;;;7.65;1.35;;;;;;;26.87;53.38;101375.88;5091997;28;20408;-69
2023/08/15 04:02:47;;;;;;;5.35;1.38;;;;;;;26.71;54.27;101383.28;5091874;28;20031;-70
2023/08/15 04:05:13;;;;;;;2.17;1.17;;;;;;;25.79;57.63;101375.09;5091327;28;20028;-69
2023/08/15 04:07:39;;;;;;;4.55;1.55;;;;;;;26.40;56.01;101375.50;5086569;28;20028;-70
2023/08/15 04:10:05;;;;;;;12.82;2.03;;;;;;;26.11;57.40;101369.44;5091384;28;20468;-70
2023/08/15 04:12:33;;;;;;;5.28;1.45;;;;;;;25.56;59.53;101369.44;5092111;28;20035;-70
2023/08/15 04:15:02;;;;;;;7.15;1.98;;;;;;;26.26;56.39;101366.72;5090530;28;20032;-69
2023/08/15 04:17:27;;;;;;;9.63;1.88;;;;;;;26.54;55.86;101361.16;5093844;28;20020;-70
2023/08/15 04:19:53;;;;;;;4.32;1.75;;;;;;;26.39;56.74;101363.09;5090866;28;20028;-70
2023/08/15 04:22:19;;;;;;;6.57;2.20;;;;;;;25.56;60.02;101366.75;5090951;28;20336;-70
2023/08/15 04:24:44;;;;;;;5.53;1.60;;;;;;;26.14;58.32;101363.88;5092052;28;20039;-70
2023/08/15 04:27:10;;;;;;;4.68;1.40;;;;;;;26.08;58.66;101357.13;5091545;28;20031;-70
2023/08/15 04:29:35;;;;;;;3.13;1.60;;;;;;;26.40;56.58;101358.56;5089126;28;20032;-69
2023/08/15 04:32:01;;;;;;;7.50;1.50;;;;;;;26.21;57.21;101365.19;5092816;28;20028;-70
2023/08/15 04:34:26;;;;;;;3.45;1.80;;;;;;;26.59;56.28;101363.50;5091111;28;20036;-70
2023/08/15 04:36:52;;;;;;;5.05;1.73;;;;;;;26.62;55.80;101357.09;5090594;28;20045;-70
2023/08/15 04:39:23;;;;;;;4.55;1.77;;;;;;;26.59;55.70;101363.50;5091373;28;20043;-70
2023/08/15 04:41:49;;;;;;;7.25;2.08;;;;;;;26.57;55.98;101366.31;5092364;28;20101;-70
2023/08/15 04:44:14;;;;;;;7.50;1.55;;;;;;;25.83;58.70;101368.59;5090587;28;20077;-70
2023/08/15 04:46:40;;;;;;;3.85;1.50;;;;;;;26.30;57.56;101366.38;5091729;28;20083;-69
2023/08/15 04:49:05;;;;;;;6.72;1.85;;;;;;;25.95;57.94;101363.38;5092702;28;20027;-70
2023/08/15 04:51:31;;;;;;;6.47;1.67;;;;;;;25.74;59.53;101371.88;5093227;28;20027;-70
2023/08/15 04:53:56;;;;;;;4.03;1.92;;;;;;;26.77;55.78;101366.75;5073521;28;20032;-70
2023/08/15 04:56:22;;;;;;;11.70;1.90;;;;;;;26.00;58.89;101382.69;5091433;28;20887;-70
2023/08/15 04:58:47;;;;;;;8.38;1.70;;;;;;;26.20;57.51;101384.91;5080302;28;20416;-70
2023/08/15 05:01:13;;;;;;;12.13;2.25;;;;;;;25.46;61.75;101384.38;5091460;28;20100;-70
2023/08/15 05:03:39;;;;;;;7.90;1.90;;;;;;;26.19;57.79;101388.53;5074459;28;20071;-70
2023/08/15 05:06:04;;;;;;;8.85;2.00;;;;;;;25.44;61.29;101396.13;5071352;28;20028;-70
2023/08/15 05:08:30;;;;;;;11.18;2.03;;;;;;;25.33;62.32;101407.50;5075758;28;20146;-70
2023/08/15 05:10:55;;;;;;;6.25;1.95;;;;;;;25.09;63.95;101408.06;5089868;28;20028;-70
2023/08/15 05:13:21;;;;;;;6.80;1.67;;;;;;;25.49;61.88;101407.41;5084661;28;20032;-70
2023/08/15 05:15:46;;;;;;;11.23;2.20;;;;;;;25.81;60.61;101407.97;5071389;28;20086;-74
2023/08/15 05:18:14;;;;;;;7.78;1.63;;;;;;;26.88;56.62;101407.06;5083146;28;20502;-72
2023/08/15 05:20:39;;;;;;;7.38;1.50;;;;;;;27.13;55.34;101410.69;5092511;28;20043;-73
2023/08/15 05:23:05;;;;;;;5.05;1.92;;;;;;;26.39;58.34;101419.34;5092809;28;20032;-73
2023/08/15 05:25:30;;;;;;;10.55;2.55;;;;;;;27.35;55.25;101419.91;5090598;28;20467;-73
2023/08/15 05:27:56;;;;;;;7.30;2.15;;;;;;;26.11;58.78;101427.53;5089132;28;20032;-73
2023/08/15 05:30:22;;;;;;;9.45;1.75;;;;;;;26.69;58.13;101430.75;5092207;28;20032;-73
2023/08/15 05:32:47;;;;;;;5.25;1.40;;;;;;;27.62;55.01;101429.66;5091570;28;20031;-71
2023/08/15 05:35:13;;;;;;;5.53;1.48;;;;;;;26.26;57.70;101434.53;5091372;28;20491;-73
2023/08/15 05:37:38;;;;;;;11.15;2.13;;;;;;;27.38;55.71;101433.13;5090944;28;20094;-73
2023/08/15 05:40:04;;;;;;;5.35;1.60;;;;;;;26.56;57.85;101439.63;5086643;28;20055;-73
2023/08/15 05:42:30;;;;;;;6.13;2.00;;;;;;;27.53;55.12;101440.09;5082617;28;20036;-73
2023/08/15 05:44:55;;;;;;;7.88;1.92;;;;;;;26.86;57.03;101434.97;5092292;28;20371;-73
2023/08/15 05:47:20;;;;;;;5.15;1.65;;;;;;;26.70;57.30;101435.19;5090331;28;20024;-73
2023/08/15 05:49:46;;;;;;;10.10;1.98;;;;;;;26.97;57.09;101442.25;5091275;28;20490;-74
2023/08/15 05:52:12;;;;;;;6.60;2.17;;;;;;;27.18;56.28;101438.06;5092462;28;20040;-74
2023/08/15 05:54:37;;;;;;;4.90;2.15;;;;;;;26.93;56.47;101430.91;5089798;28;20103;-74
2023/08/15 05:57:03;;;;;;;10.38;1.85;;;;;;;27.23;55.57;101427.88;5091394;28;20031;-73
2023/08/15 05:59:29;;;;;;;9.23;2.08;;;;;;;26.78;56.72;101440.00;5070537;28;20489;-73
2023/08/15 06:01:54;;;;;;;7.05;2.30;;;;;;;27.29;55.51;101431.09;5054286;28;20186;-73
2023/08/15 06:04:19;;;;;;;8.23;1.73;;;;;;;26.81;57.14;101442.50;5053544;28;20093;-74
2023/08/15 06:06:45;;;;;;;7.15;1.70;;;;;;;27.36;55.06;101437.78;5051470;28;20036;-73
2023/08/15 06:09:11;;;;;;;7.50;2.08;;;;;;;26.37;57.68;101452.56;5049961;28;20078;-74
2023/08/15 06:11:36;;;;;;;5.75;1.40;;;;;;;27.00;55.99;101453.66;5054051;28;20028;-74
2023/08/15 06:14:02;;;;;;;4.28;1.38;;;;;;;27.20;55.14;101449.56;5039622;28;20116;-73
2023/08/15 06:16:27;;;;;;;9.13;1.80;;;;;;;27.70;52.84;101459.50;5053495;28;20021;-73
2023/08/15 06:18:53;;;;;;;6.32;1.60;;;;;;;26.72;56.00;101466.28;5049885;28;20067;-73
2023/08/15 06:21:18;;;;;;;5.15;1.63;;;;;;;26.10;58.54;101474.84;5050459;28;20036;-73
2023/08/15 06:23:43;;;;;;;5.93;1.90;;;;;;;27.05;54.50;101483.69;5053236;28;20096;-73
2023/08/15 06:26:09;;;;;;;5.88;1.70;;;;;;;26.44;58.20;101482.50;5053838;28;20036;-73
2023/08/15 06:28:35;;;;;;;8.38;1.50;;;;;;;26.14;57.81;101491.59;5065895;28;20070;-73
2023/08/15 06:31:01;;;;;;;7.38;2.58;;;;;;;27.21;54.45;101491.50;5069562;28;20123;-73
2023/08/15 06:33:27;;;;;;;5.93;1.35;;;;;;;26.40;57.00;101506.78;5052795;28;20123;-73
2023/08/15 06:35:52;;;;;;;6.05;1.75;;;;;;;26.98;54.46;101503.00;5052585;28;20024;-73
2023/08/15 06:38:18;;;;;;;7.13;1.50;;;;;;;26.77;55.43;101503.50;5070882;28;20028;-73
2023/08/15 06:40:43;;;;;;;7.50;1.92;;;;;;;26.62;55.68;101516.09;5071817;28;20031;-73
2023/08/15 06:43:08;;;;;;;7.63;1.98;;;;;;;26.93;55.40;101511.38;5052763;28;20051;-73
2023/08/15 06:45:36;;;;;;;1.63;1.20;;;;;;;27.69;53.32;101509.63;5071014;28;20111;-73
2023/08/15 06:48:02;;;;;;;6.75;2.55;;;;;;;27.11;53.99;101519.97;5053301;28;20020;-74
2023/08/15 06:50:28;;;;;;;9.52;2.17;;;;;;;26.74;55.16;101523.34;5070562;28;20036;-73
2023/08/15 06:52:53;;;;;;;4.95;1.55;;;;;;;27.82;52.08;101520.38;5070100;28;20024;-74
2023/08/15 06:55:19;;;;;;;3.15;1.50;;;;;;;26.87;55.21;101522.50;5053015;28;20028;-73
2023/08/15 06:57:44;;;;;;;7.07;1.98;;;;;;;27.22;54.23;101520.06;5054913;28;20032;-73
2023/08/15 07:00:12;;;;;;;8.10;2.00;;;;;;;27.20;53.43;101530.06;5085271;28;20473;-72
2023/08/15 07:02:39;;;;;;;7.30;2.33;;;;;;;27.23;54.15;101524.47;5088664;28;20052;-72
2023/08/15 07:05:06;;;;;;;7.43;3.22;;;;;;;28.00;51.37;101517.31;5071825;28;20028;-73
2023/08/15 07:07:31;;;;;;;4.25;1.80;;;;;;;28.15;50.39;101526.06;5083438;28;20043;-74
2023/08/15 07:09:57;;;;;;;12.38;2.55;;;;;;;28.94;48.91;101521.91;5088818;28;20032;-74
2023/08/15 07:12:22;;;;;;;10.70;2.28;;;;;;;28.77;48.73;101533.13;5090661;28;20031;-73
2023/08/15 07:14:48;;;;;;;3.38;1.58;;;;;;;29.95;45.63;101524.81;5089599;28;20518;-74
2023/08/15 07:17:14;;;;;;;5.07;1.63;;;;;;;31.37;43.23;101528.25;5083322;28;20032;-74
2023/08/15 07:19:39;;;;;;;3.72;1.58;;;;;;;31.55;41.28;101525.75;5078461;28;20039;-73
2023/08/15 07:22:04;;;;;;;6.30;1.98;;;;;;;31.05;42.28;101523.78;5076816;28;20361;-74
2023/08/15 07:24:30;;;;;;;5.30;1.85;;;;;;;31.25;42.33;101525.59;5083728;28;20047;-74
2023/08/15 07:26:55;;;;;;;7.72;3.17;;;;;;;30.79;42.70;101527.72;5090284;28;20035;-74
2023/08/15 07:29:21;;;;;;;7.07;1.88;;;;;;;30.61;44.54;101537.38;5088918;28;20039;-74
2023/08/15 07:31:46;;;;;;;6.03;2.25;;;;;;;29.12;46.52;101543.00;5084642;28;20028;-74
2023/08/15 07:34:12;;;;;;;5.43;2.10;;;;;;;28.49;47.70;101545.06;5083631;28;20111;-73
2023/08/15 07:36:37;;;;;;;6.63;2.40;;;;;;;29.81;45.20;101536.66;5070886;28;20032;-72
2023/08/15 07:39:03;;;;;;;5.65;2.40;;;;;;;29.41;46.44;101547.94;5088305;28;20079;-72
2023/08/15 07:41:29;;;;;;;5.50;2.97;;;;;;;29.01;47.22;101549.19;5085135;28;20032;-73
2023/08/15 07:43:54;;;;;;;6.10;2.25;;;;;;;29.96;45.91;101542.69;5080941;28;20459;-73
2023/08/15 07:46:20;;;;;;;5.82;2.50;;;;;;;28.73;48.65;101548.63;5089074;28;20097;-73
2023/08/15 07:48:46;;;;;;;8.48;2.58;;;;;;;29.00;47.66;101552.00;5087395;28;20058;-73
2023/08/15 07:51:11;;;;;;;6.68;2.60;;;;;;;29.73;45.83;101549.91;5088519;28;20492;-74
2023/08/15 07:53:37;;;;;;;5.68;2.20;;;;;;;29.25;46.96;101554.53;5087915;28;20373;-72
2023/08/15 07:56:02;;;;;;;8.00;2.55;;;;;;;28.48;48.51;101559.47;5088993;28;20107;-74
2023/08/15 07:58:28;;;;;;;4.65;2.70;;;;;;;28.53;48.49;101563.53;5077497;28;20048;-74
2023/08/15 08:00:53;;;;;;;10.15;3.13;;;;;;;28.04;49.97;101561.78;5051297;28;20032;-74
2023/08/15 08:03:19;;;;;;;5.65;3.30;;;;;;;29.47;47.15;101563.63;5050810;28;20052;-73
2023/08/15 08:05:45;;;;;;;7.70;3.17;;;;;;;29.10;48.19;101564.63;5050571;28;20035;-73
2023/08/15 08:08:12;;;;;;;5.10;3.13;;;;;;;29.05;47.37;101566.81;5051331;28;20059;-74
2023/08/15 08:10:38;;;;;;;11.50;3.65;;;;;;;28.93;48.06;101570.44;5066239;28;20035;-73
2023/08/15 08:13:06;;;;;;;4.70;2.75;;;;;;;28.91;47.38;101562.50;5068461;28;20481;-74
2023/08/15 08:15:32;;;;;;;4.47;2.80;;;;;;;29.03;46.88;101565.22;5070517;28;20028;-74
2023/08/15 08:17:58;;;;;;;6.28;2.75;;;;;;;29.86;46.12;101564.13;5069311;28;20034;-74
2023/08/15 08:20:25;;;;;;;4.63;2.83;;;;;;;28.37;48.17;101571.91;5050724;28;20437;-74
2023/08/15 08:22:50;;;;;;;7.43;2.58;;;;;;;27.81;50.23;101576.84;5051676;28;20036;-74
2023/08/15 08:25:22;;;;;;;4.57;2.83;;;;;;;28.87;48.50;101574.47;5052061;28;20033;-74
2023/08/15 08:27:48;;;;;;;6.27;3.63;;;;;;;28.58;48.13;101574.81;5068424;28;20021;-72
2023/08/15 08:30:17;;;;;;;6.88;3.58;;;;;;;28.52;48.21;101577.97;5052471;28;20115;-73
2023/08/15 08:32:43;;;;;;;7.22;3.70;;;;;;;28.22;49.58;101581.06;5045787;28;20025;-74
2023/08/15 08:35:10;;;;;;;13.82;4.30;;;;;;;28.22;49.88;101590.03;5048998;28;20035;-74
2023/08/15 08:37:36;;;;;;;7.60;3.33;;;;;;;29.35;47.84;101591.53;5046843;28;20029;-72
2023/08/15 08:40:03;;;;;;;5.43;3.85;;;;;;;28.93;47.81;101587.47;5061740;28;20050;-73
2023/08/15 08:42:29;;;;;;;6.47;3.60;;;;;;;28.85;48.40;101599.78;5072497;28;20025;-72
2023/08/15 08:44:55;;;;;;;7.00;3.58;;;;;;;29.05;48.84;101592.88;5054880;28;20036;-72
2023/08/15 08:47:24;;;;;;;6.30;3.58;;;;;;;28.73;48.89;101599.72;5056069;28;20028;-73
2023/08/15 08:49:52;;;;;;;7.65;3.45;;;;;;;29.10;47.67;101594.25;5053623;28;20040;-73
2023/08/15 08:52:18;;;;;;;8.63;3.78;;;;;;;27.89;50.28;101586.09;5054580;28;20055;-73
2023/08/15 08:54:45;;;;;;;9.45;2.60;;;;;;;27.87;50.40;101589.84;5053735;28;20024;-74
2023/08/15 08:57:11;;;;;;;6.53;2.42;;;;;;;28.21;49.43;101590.97;5048551;28;20099;-72
2023/08/15 08:59:39;;;;;;;7.18;2.50;;;;;;;27.67;50.87;101604.69;5086915;28;20016;-73
2023/08/15 09:02:11;;;;;;;3.97;2.30;;;;;;;27.03;53.14;101597.41;5091076;28;20034;-72
2023/08/15 09:04:37;;;;;;;3.00;2.28;;;;;;;27.90;50.84;101598.56;5073870;28;20099;-73
2023/08/15 09:07:03;;;;;;;5.05;2.00;;;;;;;28.63;49.08;101600.50;5092590;28;20024;-73
2023/08/15 09:09:28;;;;;;;8.57;2.35;;;;;;;29.33;48.00;101602.38;5091495;28;20398;-72
2023/08/15 09:11:53;;;;;;;3.08;1.77;;;;;;;27.93;51.29;101600.13;5090822;28;20570;-74
2023/08/15 09:14:19;;;;;;;5.40;2.83;;;;;;;27.91;51.47;101611.00;5093107;28;20050;-73
2023/08/15 09:16:47;;;;;;;6.90;2.53;;;;;;;27.93;51.40;101606.38;5087731;28;20490;-73
2023/08/15 09:19:13;;;;;;;5.88;3.33;;;;;;;28.09;51.13;101602.63;5084864;28;20077;-73
2023/08/15 09:21:39;;;;;;;9.32;3.47;;;;;;;29.22;48.74;101608.59;5091656;28;20027;-73
2023/08/15 09:24:05;;;;;;;7.53;2.60;;;;;;;27.98;50.41;101610.56;5078941;28;20029;-73
2023/08/15 09:26:38;;;;;;;7.50;2.65;;;;;;;28.10;50.51;101609.72;5078545;28;20555;-73
2023/08/15 09:29:04;;;;;;;6.13;2.28;;;;;;;28.82;49.14;101608.94;5076593;28;20032;-72
2023/08/15 09:31:29;;;;;;;2.67;1.65;;;;;;;29.20;47.98;101613.22;5091697;28;20042;-74
2023/08/15 09:33:55;;;;;;;3.63;1.38;;;;;;;29.23;47.66;101610.28;5081968;28;20393;-73
2023/08/15 09:36:23;;;;;;;3.38;1.60;;;;;;;27.96;49.15;101612.50;5091428;28;20040;-73
2023/08/15 09:38:51;;;;;;;3.38;1.30;;;;;;;29.57;47.65;101610.38;5089538;28;20039;-74
2023/08/15 09:41:17;;;;;;;3.53;1.30;;;;;;;28.81;47.63;101626.06;5091483;28;20111;-74
2023/08/15 09:43:50;;;;;;;4.95;1.88;;;;;;;28.72;49.16;101627.59;5089975;28;20077;-74
2023/08/15 09:46:20;;;;;;;3.25;1.73;;;;;;;28.87;48.79;101636.34;5090664;28;20028;-73
2023/08/15 09:48:49;;;;;;;3.05;2.53;;;;;;;27.81;52.50;101639.50;5087338;28;20012;-74
2023/08/15 09:51:16;;;;;;;3.72;2.50;;;;;;;27.68;53.24;101646.69;5090340;28;20502;-73
2023/08/15 09:53:43;;;;;;;4.50;2.38;;;;;;;27.74;52.83;101648.97;5087974;28;20475;-74
2023/08/15 09:56:10;;;;;;;3.35;2.72;;;;;;;27.12;53.54;101650.47;5090869;28;20050;-74
2023/08/15 09:58:36;;;;;;;2.75;2.50;;;;;;;28.60;50.61;101653.56;5085557;28;20052;-73
2023/08/15 10:01:04;;;;;;;4.25;3.65;;;;;;;29.09;48.88;101651.72;5089763;28;20020;-74
2023/08/15 10:03:36;;;;;;;3.50;2.70;;;;;;;29.80;48.04;101656.22;5087420;28;20432;-73
2023/08/15 10:06:03;;;;;;;6.18;2.70;;;;;;;29.23;47.70;101664.13;5090493;28;20140;-74
2023/08/15 10:08:29;;;;;;;4.32;2.28;;;;;;;29.15;47.58;101665.69;5074756;28;20028;-73
2023/08/15 10:10:57;;;;;;;1.70;1.60;;;;;;;29.48;46.54;101662.25;5088258;28;20466;-72
2023/08/15 10:13:27;;;;;;;3.50;1.60;;;;;;;30.37;43.92;101656.22;5078050;28;20040;-74
2023/08/15 10:15:53;;;;;;;3.55;0.90;;;;;;;28.88;46.21;101659.59;5081906;28;20024;-72
2023/08/15 10:18:19;;;;;;;1.92;0.70;;;;;;;29.24;45.40;101671.25;5087917;28;20031;-73
2023/08/15 10:20:50;;;;;;;1.77;0.90;;;;;;;28.78;45.59;101663.94;5086842;28;20017;-73
2023/08/15 10:23:23;;;;;;;3.00;0.68;;;;;;;29.10;45.23;101669.59;5084661;28;20525;-72
2023/08/15 10:25:49;;;;;;;4.40;0.95;;;;;;;29.28;45.07;101664.66;5081252;28;20036;-73
2023/08/15 10:28:14;;;;;;;2.30;0.98;;;;;;;28.71;47.56;101663.53;5073613;28;20035;-73
2023/08/15 10:30:47;;;;;;;0.60;0.60;;;;;;;29.00;46.62;101673.94;5090085;28;20458;-74
2023/08/15 10:33:15;;;;;;;0.98;0.60;;;;;;;28.82;47.54;101684.25;5077202;28;20036;-73
2023/08/15 10:35:44;;;;;;;2.30;0.77;;;;;;;28.10;49.00;101685.81;5089937;28;20028;-74
2023/08/15 10:38:14;;;;;;;2.13;0.93;;;;;;;27.79;53.59;101695.13;5087373;28;20119;-74
2023/08/15 10:40:42;;;;;;;0.80;0.75;;;;;;;27.67;57.01;101699.53;5081947;28;20039;-73
2023/08/15 10:43:10;;;;;;;2.00;0.80;;;;;;;27.78;56.96;101701.50;5088996;28;20055;-74
2023/08/15 10:45:50;;;;;;;2.28;0.88;;;;;;;27.71;58.52;101701.06;5084896;28;20024;-72
2023/08/15 10:48:35;;;;;;;1.25;0.80;;;;;;;25.68;65.45;101720.25;5079326;28;20090;-74
2023/08/15 10:51:01;;;;;;;4.43;0.90;;;;;;;25.69;66.38;101708.56;5080839;28;20186;-73
2023/08/15 10:53:26;;;;;;;1.27;0.88;;;;;;;26.46;64.98;101713.72;5088431;28;20527;-73
2023/08/15 10:55:54;;;;;;;0.85;0.70;;;;;;;27.73;61.55;101704.47;5083177;28;20024;-73
2023/08/15 10:58:21;;;;;;;1.50;1.00;;;;;;;24.51;80.88;101728.63;5071167;28;20049;-73
2023/08/15 11:00:49;;;;;;;0.80;0.73;;;;;;;26.29;69.06;101714.78;5032887;28;20119;-73
2023/08/15 11:03:15;;;;;;;1.45;1.05;;;;;;;27.34;65.10;101697.28;5061219;28;20017;-73
2023/08/15 11:05:42;;;;;;;1.02;1.02;;;;;;;28.06;60.50;101702.25;5052380;28;20036;-73
2023/08/15 11:08:10;;;;;;;1.20;1.10;;;;;;;28.78;56.33;101701.59;5052386;28;20020;-73
2023/08/15 11:10:35;;;;;;;1.80;1.70;;;;;;;28.44;57.96;101701.34;5069219;28;20400;-73
2023/08/15 11:13:01;;;;;;;4.22;2.20;;;;;;;28.54;55.81;101713.16;5052181;28;20023;-73
2023/08/15 11:15:26;;;;;;;1.40;1.27;;;;;;;28.66;55.18;101705.19;5053335;28;20502;-74
2023/08/15 11:17:53;;;;;;;2.45;1.30;;;;;;;29.68;53.03;101708.34;5051349;28;20151;-74
2023/08/15 11:20:20;;;;;;;1.85;1.65;;;;;;;28.80;52.75;101710.41;5051950;28;20081;-74